Cowlington, Oklahoma
Current Conditions -  °F | °C
As of 2:15 AM on Wednesday 26 Nov 2014 (Local Time) from KGZL Reporting Station
Clear Clear  
Wind Chill: 31°   Ceiling: Unl
Heat Index: 37°   Visibility: 10mi
Dew Point: 25°   Wind: 8mph
Humidity: 60%   Direction: 110°ESE
Pressure: 30.02"   Gusts: NA
Location:  35.2597°N, 94.8795°W
Report Text: KGZL 260815Z AUTO 11007KT 10SM CLR 03/M04 A3002 RMK AO2
Loading
Personal Weather Stations






























Interactive Weather Map New forecast layout! Learn more

10-Day Weather Forecast

Advertisements
Track Severe Weather on mobile